sensor_id;sensor_type;location;lat;lon;timestamp;pressure;altitude;pressure_sealevel;temperature;humidity
11808;BME280;5961;42.640;23.380;2023-05-21T00:02:13;93935.59;;;16.52;89.17
11808;BME280;5961;42.640;23.380;2023-05-21T00:04:41;93882.47;;;16.21;88.57
11808;BME280;5961;42.640;23.380;2023-05-21T00:07:08;93892.09;;;16.29;88.23
11808;BME280;5961;42.640;23.380;2023-05-21T00:09:36;93932.25;;;16.59;87.34
11808;BME280;5961;42.640;23.380;2023-05-21T00:12:03;93926.84;;;16.55;87.86
11808;BME280;5961;42.640;23.380;2023-05-21T00:14:30;93930.66;;;16.54;86.20
11808;BME280;5961;42.640;23.380;2023-05-21T00:16:58;93927.13;;;16.50;86.44
11808;BME280;5961;42.640;23.380;2023-05-21T00:19:25;93923.25;;;16.44;86.67
11808;BME280;5961;42.640;23.380;2023-05-21T00:21:52;93914.75;;;16.35;86.58
11808;BME280;5961;42.640;23.380;2023-05-21T00:24:19;93914.28;;;16.26;86.37
11808;BME280;5961;42.640;23.380;2023-05-21T00:26:45;93910.41;;;16.20;86.83
11808;BME280;5961;42.640;23.380;2023-05-21T00:29:12;93914.91;;;16.09;87.18
11808;BME280;5961;42.640;23.380;2023-05-21T00:31:39;93908.00;;;16.04;88.44
11808;BME280;5961;42.640;23.380;2023-05-21T00:34:07;93900.22;;;15.96;89.18
11808;BME280;5961;42.640;23.380;2023-05-21T00:36:33;93905.94;;;15.90;88.54
11808;BME280;5961;42.640;23.380;2023-05-21T00:39:00;93905.91;;;15.87;89.08
11808;BME280;5961;42.640;23.380;2023-05-21T00:41:28;93892.03;;;15.78;88.95
11808;BME280;5961;42.640;23.380;2023-05-21T00:43:55;93899.66;;;15.76;89.10
11808;BME280;5961;42.640;23.380;2023-05-21T00:46:25;93899.28;;;15.74;89.40
11808;BME280;5961;42.640;23.380;2023-05-21T00:48:53;93899.28;;;15.74;89.53
11808;BME280;5961;42.640;23.380;2023-05-21T00:51:23;93811.34;;;15.13;89.67
11808;BME280;5961;42.640;23.380;2023-05-21T00:53:54;93909.22;;;15.73;89.78
11808;BME280;5961;42.640;23.380;2023-05-21T00:56:22;93905.38;;;15.71;89.27
11808;BME280;5961;42.640;23.380;2023-05-21T00:58:51;93897.72;;;15.73;89.14
11808;BME280;5961;42.640;23.380;2023-05-21T01:01:17;93864.50;;;15.44;89.23
11808;BME280;5961;42.640;23.380;2023-05-21T01:03:44;93901.03;;;15.63;89.80
11808;BME280;5961;42.640;23.380;2023-05-21T01:06:13;93890.59;;;15.51;90.13
11808;BME280;5961;42.640;23.380;2023-05-21T01:08:41;93894.69;;;15.41;90.04
11808;BME280;5961;42.640;23.380;2023-05-21T01:11:08;93890.34;;;15.33;90.53
11808;BME280;5961;42.640;23.380;2023-05-21T01:13:38;93890.31;;;15.29;90.99
11808;BME280;5961;42.640;23.380;2023-05-21T01:16:06;93853.31;;;15.05;91.22
11808;BME280;5961;42.640;23.380;2023-05-21T01:18:34;93871.50;;;15.22;91.50
11808;BME280;5961;42.640;23.380;2023-05-21T01:21:02;93888.00;;;15.28;91.69
11808;BME280;5961;42.640;23.380;2023-05-21T01:23:30;93888.00;;;15.28;93.66
11808;BME280;5961;42.640;23.380;2023-05-21T01:25:57;93874.28;;;15.33;95.77
11808;BME280;5961;42.640;23.380;2023-05-21T01:28:24;93882.03;;;15.42;96.91
11808;BME280;5961;42.640;23.380;2023-05-21T01:30:51;93882.19;;;15.52;97.19
11808;BME280;5961;42.640;23.380;2023-05-21T01:33:22;93871.53;;;15.59;96.48
11808;BME280;5961;42.640;23.380;2023-05-21T01:35:59;93873.94;;;15.68;95.41
11808;BME280;5961;42.640;23.380;2023-05-21T01:38:32;93879.00;;;15.76;94.35
11808;BME280;5961;42.640;23.380;2023-05-21T01:41:06;93864.91;;;15.83;93.18
11808;BME280;5961;42.640;23.380;2023-05-21T01:43:38;93875.63;;;15.86;92.98
11808;BME280;5961;42.640;23.380;2023-05-21T01:46:09;93871.06;;;15.87;92.94
11808;BME280;5961;42.640;23.380;2023-05-21T01:48:36;93874.63;;;15.98;92.23
11808;BME280;5961;42.640;23.380;2023-05-21T01:51:04;93859.94;;;15.85;91.90
11808;BME280;5961;42.640;23.380;2023-05-21T01:53:33;93873.38;;;15.88;93.70
11808;BME280;5961;42.640;23.380;2023-05-21T01:55:59;93872.31;;;15.97;94.01
11808;BME280;5961;42.640;23.380;2023-05-21T01:58:27;93866.13;;;15.92;95.68
11808;BME280;5961;42.640;23.380;2023-05-21T02:00:54;93876.50;;;15.94;97.01
11808;BME280;5961;42.640;23.380;2023-05-21T02:03:23;93859.25;;;15.91;96.95
11808;BME280;5961;42.640;23.380;2023-05-21T02:05:50;93859.66;;;15.97;97.32
11808;BME280;5961;42.640;23.380;2023-05-21T02:08:17;93866.59;;;16.02;98.01
11808;BME280;5961;42.640;23.380;2023-05-21T02:10:46;93864.31;;;16.04;97.60
11808;BME280;5961;42.640;23.380;2023-05-21T02:13:13;93864.31;;;16.04;97.68
11808;BME280;5961;42.640;23.380;2023-05-21T02:15:40;93810.47;;;15.75;96.83
11808;BME280;5961;42.640;23.380;2023-05-21T02:18:07;93860.56;;;16.12;97.15
11808;BME280;5961;42.640;23.380;2023-05-21T02:20:34;93859.78;;;16.11;98.25
11808;BME280;5961;42.640;23.380;2023-05-21T02:23:00;93861.31;;;16.09;98.67
11808;BME280;5961;42.640;23.380;2023-05-21T02:25:27;93864.06;;;16.16;98.86
11808;BME280;5961;42.640;23.380;2023-05-21T02:27:55;93861.38;;;16.16;98.97
11808;BME280;5961;42.640;23.380;2023-05-21T02:30:22;93859.03;;;16.14;99.29
11808;BME280;5961;42.640;23.380;2023-05-21T02:32:48;93851.41;;;16.20;100.00
11808;BME280;5961;42.640;23.380;2023-05-21T02:35:15;93854.09;;;16.20;100.00
11808;BME280;5961;42.640;23.380;2023-05-21T02:37:42;93849.94;;;16.22;100.00
11808;BME280;5961;42.640;23.380;2023-05-21T02:40:09;93853.38;;;16.23;100.00
11808;BME280;5961;42.640;23.380;2023-05-21T02:42:37;93849.94;;;16.22;100.00
11808;BME280;5961;42.640;23.380;2023-05-21T02:45:06;93850.28;;;16.21;100.00
11808;BME280;5961;42.640;23.380;2023-05-21T02:47:33;93849.53;;;16.24;100.00
11808;BME280;5961;42.640;23.380;2023-05-21T02:50:00;93836.81;;;16.14;100.00
11808;BME280;5961;42.640;23.380;2023-05-21T02:52:27;93848.00;;;16.19;100.00
11808;BME280;5961;42.640;23.380;2023-05-21T02:54:54;93853.75;;;16.21;100.00
11808;BME280;5961;42.640;23.380;2023-05-21T02:57:20;93844.13;;;16.17;100.00
11808;BME280;5961;42.640;23.380;2023-05-21T02:59:47;93841.50;;;16.24;100.00
11808;BME280;5961;42.640;23.380;2023-05-21T03:02:15;93845.28;;;16.16;100.00
11808;BME280;5961;42.640;23.380;2023-05-21T03:04:42;93841.34;;;16.03;100.00
11808;BME280;5961;42.640;23.380;2023-05-21T03:07:11;93846.00;;;16.09;100.00
11808;BME280;5961;42.640;23.380;2023-05-21T03:09:39;93850.94;;;16.04;100.00
11808;BME280;5961;42.640;23.380;2023-05-21T03:12:06;93827.00;;;15.84;100.00
11808;BME280;5961;42.640;23.380;2023-05-21T03:14:33;93842.06;;;16.00;100.00
11808;BME280;5961;42.640;23.380;2023-05-21T03:17:00;93839.66;;;15.87;100.00
11808;BME280;5961;42.640;23.380;2023-05-21T03:19:31;93849.16;;;15.78;100.00
11808;BME280;5961;42.640;23.380;2023-05-21T03:21:59;93851.84;;;15.78;100.00
11808;BME280;5961;42.640;23.380;2023-05-21T03:24:26;93858.00;;;15.82;100.00
11808;BME280;5961;42.640;23.380;2023-05-21T03:26:53;93758.22;;;15.15;100.00
11808;BME280;5961;42.640;23.380;2023-05-21T03:29:20;93854.84;;;15.73;100.00
11808;BME280;5961;42.640;23.380;2023-05-21T03:31:46;93857.16;;;15.74;100.00
11808;BME280;5961;42.640;23.380;2023-05-21T03:34:13;93849.56;;;15.80;100.00
11808;BME280;5961;42.640;23.380;2023-05-21T03:36:42;93852.69;;;15.85;100.00
11808;BME280;5961;42.640;23.380;2023-05-21T03:39:08;93856.91;;;15.90;100.00
11808;BME280;5961;42.640;23.380;2023-05-21T03:41:35;93858.91;;;15.97;100.00
11808;BME280;5961;42.640;23.380;2023-05-21T03:44:02;93865.84;;;16.01;100.00
11808;BME280;5961;42.640;23.380;2023-05-21T03:46:28;93861.22;;;16.02;100.00
11808;BME280;5961;42.640;23.380;2023-05-21T03:48:56;93859.72;;;16.01;100.00
11808;BME280;5961;42.640;23.380;2023-05-21T03:51:23;93860.47;;;16.01;98.93
11808;BME280;5961;42.640;23.380;2023-05-21T03:53:51;93860.47;;;16.01;97.56
11808;BME280;5961;42.640;23.380;2023-05-21T03:56:18;93852.03;;;15.99;98.07
11808;BME280;5961;42.640;23.380;2023-05-21T03:58:45;93863.97;;;16.09;97.50
11808;BME280;5961;42.640;23.380;2023-05-21T04:01:12;93864.38;;;16.07;94.42
11808;BME280;5961;42.640;23.380;2023-05-21T04:03:39;93862.84;;;16.10;93.37
11808;BME280;5961;42.640;23.380;2023-05-21T04:06:06;93867.47;;;16.13;91.77
11808;BME280;5961;42.640;23.380;2023-05-21T04:08:34;93869.03;;;16.17;90.85
11808;BME280;5961;42.640;23.380;2023-05-21T04:11:03;93865.59;;;16.20;88.96
11808;BME280;5961;42.640;23.380;2023-05-21T04:13:30;93864.44;;;16.18;87.11
11808;BME280;5961;42.640;23.380;2023-05-21T04:15:57;93870.19;;;16.20;86.38
11808;BME280;5961;42.640;23.380;2023-05-21T04:18:24;93864.47;;;16.21;87.44
11808;BME280;5961;42.640;23.380;2023-05-21T04:20:51;93868.28;;;16.20;84.44
11808;BME280;5961;42.640;23.380;2023-05-21T04:23:18;93842.03;;;15.96;85.36
11808;BME280;5961;42.640;23.380;2023-05-21T04:25:47;93870.53;;;16.15;88.91
11808;BME280;5961;42.640;23.380;2023-05-21T04:28:16;93875.91;;;16.15;89.91
11808;BME280;5961;42.640;23.380;2023-05-21T04:30:44;93858.63;;;16.09;86.88
11808;BME280;5961;42.640;23.380;2023-05-21T04:33:11;93863.19;;;16.08;85.32
11808;BME280;5961;42.640;23.380;2023-05-21T04:35:39;93874.69;;;16.09;83.42
11808;BME280;5961;42.640;23.380;2023-05-21T04:38:09;93872.03;;;16.09;83.17
11808;BME280;5961;42.640;23.380;2023-05-21T04:40:37;93870.47;;;16.08;84.42
11808;BME280;5961;42.640;23.380;2023-05-21T04:43:04;93864.69;;;16.02;84.47
11808;BME280;5961;42.640;23.380;2023-05-21T04:45:33;93872.69;;;15.99;84.77
11808;BME280;5961;42.640;23.380;2023-05-21T04:48:00;93876.56;;;16.01;84.98
11808;BME280;5961;42.640;23.380;2023-05-21T04:50:27;93873.50;;;16.03;84.21
11808;BME280;5961;42.640;23.380;2023-05-21T04:52:55;93871.22;;;16.05;85.61
11808;BME280;5961;42.640;23.380;2023-05-21T04:55:23;93874.34;;;16.10;84.70
11808;BME280;5961;42.640;23.380;2023-05-21T04:57:50;93865.09;;;16.08;84.63
11808;BME280;5961;42.640;23.380;2023-05-21T05:00:18;93876.28;;;16.17;84.19
11808;BME280;5961;42.640;23.380;2023-05-21T05:02:47;93874.06;;;16.22;84.84
11808;BME280;5961;42.640;23.380;2023-05-21T05:05:14;93877.94;;;16.28;85.30
11808;BME280;5961;42.640;23.380;2023-05-21T05:07:40;93871.06;;;16.31;83.84
11808;BME280;5961;42.640;23.380;2023-05-21T05:10:08;93867.22;;;16.32;82.57
11808;BME280;5961;42.640;23.380;2023-05-21T05:12:34;93880.72;;;16.42;81.42
11808;BME280;5961;42.640;23.380;2023-05-21T05:15:01;93874.66;;;16.49;81.99
11808;BME280;5961;42.640;23.380;2023-05-21T05:17:28;93878.94;;;16.57;83.45
11808;BME280;5961;42.640;23.380;2023-05-21T05:19:56;93872.47;;;16.65;83.74
11808;BME280;5961;42.640;23.380;2023-05-21T05:22:22;93880.59;;;16.72;82.05
11808;BME280;5961;42.640;23.380;2023-05-21T05:24:49;93869.47;;;16.74;79.64
11808;BME280;5961;42.640;23.380;2023-05-21T05:27:16;93887.19;;;16.85;80.73
11808;BME280;5961;42.640;23.380;2023-05-21T05:29:43;93890.28;;;16.91;80.59
11808;BME280;5961;42.640;23.380;2023-05-21T05:32:10;93877.66;;;16.98;82.71
11808;BME280;5961;42.640;23.380;2023-05-21T05:34:36;93882.69;;;17.04;82.64
11808;BME280;5961;42.640;23.380;2023-05-21T05:37:05;93881.19;;;17.10;81.38
11808;BME280;5961;42.640;23.380;2023-05-21T05:39:31;93872.72;;;17.08;80.01
11808;BME280;5961;42.640;23.380;2023-05-21T05:41:58;93777.25;;;16.41;81.46
11808;BME280;5961;42.640;23.380;2023-05-21T05:44:25;93880.47;;;17.16;80.36
11808;BME280;5961;42.640;23.380;2023-05-21T05:46:52;93878.16;;;17.22;80.69
11808;BME280;5961;42.640;23.380;2023-05-21T05:49:19;93876.66;;;17.28;80.21
11808;BME280;5961;42.640;23.380;2023-05-21T05:51:46;93871.28;;;17.28;80.28
11808;BME280;5961;42.640;23.380;2023-05-21T05:54:14;93879.78;;;17.37;79.71
11808;BME280;5961;42.640;23.380;2023-05-21T05:56:41;93882.09;;;17.42;79.45
11808;BME280;5961;42.640;23.380;2023-05-21T05:59:07;93872.53;;;17.51;79.91
11808;BME280;5961;42.640;23.380;2023-05-21T06:01:34;93876.41;;;17.58;79.18
11808;BME280;5961;42.640;23.380;2023-05-21T06:04:01;93879.88;;;17.65;79.06
11808;BME280;5961;42.640;23.380;2023-05-21T06:06:27;93874.91;;;17.74;79.44
11808;BME280;5961;42.640;23.380;2023-05-21T06:08:54;93877.63;;;17.81;78.33
11808;BME280;5961;42.640;23.380;2023-05-21T06:11:22;93881.50;;;17.91;78.00
11808;BME280;5961;42.640;23.380;2023-05-21T06:13:48;93870.75;;;17.94;77.44
11808;BME280;5961;42.640;23.380;2023-05-21T06:16:15;93875.34;;;17.97;77.00
11808;BME280;5961;42.640;23.380;2023-05-21T06:18:42;93874.22;;;18.05;77.54
11808;BME280;5961;42.640;23.380;2023-05-21T06:21:09;93872.28;;;18.06;77.48
11808;BME280;5961;42.640;23.380;2023-05-21T06:23:35;93874.97;;;18.13;77.79
11808;BME280;5961;42.640;23.380;2023-05-21T06:26:02;93869.22;;;18.15;77.80
11808;BME280;5961;42.640;23.380;2023-05-21T06:28:31;93869.22;;;18.18;77.17
11808;BME280;5961;42.640;23.380;2023-05-21T06:30:57;93865.38;;;18.19;76.18
11808;BME280;5961;42.640;23.380;2023-05-21T06:33:24;93873.84;;;18.21;76.55
11808;BME280;5961;42.640;23.380;2023-05-21T06:35:51;93869.25;;;18.22;76.53
11808;BME280;5961;42.640;23.380;2023-05-21T06:38:18;93871.53;;;18.20;76.94
11808;BME280;5961;42.640;23.380;2023-05-21T06:40:44;93866.91;;;18.24;76.97
11808;BME280;5961;42.640;23.380;2023-05-21T06:43:12;93853.84;;;18.22;77.51
11808;BME280;5961;42.640;23.380;2023-05-21T06:45:40;93852.72;;;18.27;77.38
11808;BME280;5961;42.640;23.380;2023-05-21T06:48:07;93856.94;;;18.28;77.31
11808;BME280;5961;42.640;23.380;2023-05-21T06:50:33;93851.56;;;18.28;78.03
11808;BME280;5961;42.640;23.380;2023-05-21T06:53:00;93855.41;;;18.34;77.89
11808;BME280;5961;42.640;23.380;2023-05-21T06:55:27;93855.41;;;18.34;77.56
11808;BME280;5961;42.640;23.380;2023-05-21T06:57:53;93862.31;;;18.35;77.76
11808;BME280;5961;42.640;23.380;2023-05-21T07:00:20;93853.09;;;18.36;77.15
11808;BME280;5961;42.640;23.380;2023-05-21T07:02:48;93863.44;;;18.41;76.25
11808;BME280;5961;42.640;23.380;2023-05-21T07:05:15;93853.84;;;18.43;74.71
11808;BME280;5961;42.640;23.380;2023-05-21T07:07:42;93857.31;;;18.47;75.30
11808;BME280;5961;42.640;23.380;2023-05-21T07:10:09;93856.19;;;18.52;75.79
11808;BME280;5961;42.640;23.380;2023-05-21T07:12:35;93849.25;;;18.54;75.82
11808;BME280;5961;42.640;23.380;2023-05-21T07:15:03;93846.94;;;18.60;76.32
11808;BME280;5961;42.640;23.380;2023-05-21T07:17:29;93846.94;;;18.63;74.16
11808;BME280;5961;42.640;23.380;2023-05-21T07:19:57;93848.47;;;18.68;73.47
11808;BME280;5961;42.640;23.380;2023-05-21T07:22:24;93855.75;;;18.71;73.01
11808;BME280;5961;42.640;23.380;2023-05-21T07:24:51;93845.00;;;18.71;73.98
11808;BME280;5961;42.640;23.380;2023-05-21T07:27:18;93848.84;;;18.81;73.78
11808;BME280;5961;42.640;23.380;2023-05-21T07:29:44;93854.22;;;18.84;73.59
11808;BME280;5961;42.640;23.380;2023-05-21T07:32:11;93849.97;;;18.87;73.66
11808;BME280;5961;42.640;23.380;2023-05-21T07:34:38;93854.16;;;18.95;73.37
11808;BME280;5961;42.640;23.380;2023-05-21T07:37:06;93857.63;;;19.02;72.40
11808;BME280;5961;42.640;23.380;2023-05-21T07:39:32;93857.63;;;19.06;71.51
11808;BME280;5961;42.640;23.380;2023-05-21T07:41:59;93858.34;;;19.13;71.79
11808;BME280;5961;42.640;23.380;2023-05-21T07:44:26;93857.56;;;19.16;72.33
11808;BME280;5961;42.640;23.380;2023-05-21T07:46:52;93854.50;;;19.18;69.61
11808;BME280;5961;42.640;23.380;2023-05-21T07:49:19;93853.31;;;19.23;69.46
11808;BME280;5961;42.640;23.380;2023-05-21T07:51:46;93861.78;;;19.28;69.56
11808;BME280;5961;42.640;23.380;2023-05-21T07:54:14;93850.63;;;19.30;70.88
11808;BME280;5961;42.640;23.380;2023-05-21T07:56:40;93855.22;;;19.36;68.63
11808;BME280;5961;42.640;23.380;2023-05-21T07:59:07;93848.25;;;19.39;67.48
11808;BME280;5961;42.640;23.380;2023-05-21T08:01:34;93839.03;;;19.36;65.54
11808;BME280;5961;42.640;23.380;2023-05-21T08:04:01;93840.19;;;19.46;62.82
11808;BME280;5961;42.640;23.380;2023-05-21T08:06:30;93835.53;;;19.50;60.87
11808;BME280;5961;42.640;23.380;2023-05-21T08:08:58;93837.44;;;19.53;61.41
11808;BME280;5961;42.640;23.380;2023-05-21T08:11:27;93838.19;;;19.57;58.57
11808;BME280;5961;42.640;23.380;2023-05-21T08:13:54;93833.16;;;19.62;58.73
11808;BME280;5961;42.640;23.380;2023-05-21T08:16:21;93840.44;;;19.69;58.33
11808;BME280;5961;42.640;23.380;2023-05-21T08:18:48;93837.31;;;19.74;59.28
11808;BME280;5961;42.640;23.380;2023-05-21T08:21:15;93839.19;;;19.84;59.96
11808;BME280;5961;42.640;23.380;2023-05-21T08:23:42;93826.06;;;19.90;59.70
11808;BME280;5961;42.640;23.380;2023-05-21T08:26:09;93827.22;;;19.89;58.96
11808;BME280;5961;42.640;23.380;2023-05-21T08:28:37;93824.13;;;19.90;59.02
11808;BME280;5961;42.640;23.380;2023-05-21T08:31:04;93817.63;;;19.84;58.65
11808;BME280;5961;42.640;23.380;2023-05-21T08:33:34;93825.75;;;19.77;57.18
11808;BME280;5961;42.640;23.380;2023-05-21T08:36:01;93835.03;;;19.76;57.20
11808;BME280;5961;42.640;23.380;2023-05-21T08:38:28;93832.69;;;19.75;57.65
11808;BME280;5961;42.640;23.380;2023-05-21T08:40:55;93816.94;;;19.73;58.19
11808;BME280;5961;42.640;23.380;2023-05-21T08:43:24;93834.63;;;19.74;57.86
11808;BME280;5961;42.640;23.380;2023-05-21T08:45:55;93806.59;;;19.61;55.66
11808;BME280;5961;42.640;23.380;2023-05-21T08:48:23;93798.16;;;19.55;56.51
11808;BME280;5961;42.640;23.380;2023-05-21T08:50:50;93835.72;;;19.84;57.69
11808;BME280;5961;42.640;23.380;2023-05-21T08:53:18;93795.41;;;19.62;59.87
11808;BME280;5961;42.640;23.380;2023-05-21T08:55:45;93817.94;;;19.93;59.33
11808;BME280;5961;42.640;23.380;2023-05-21T08:58:13;93826.03;;;19.93;56.72
11808;BME280;5961;42.640;23.380;2023-05-21T09:00:40;93817.91;;;20.00;58.23
11808;BME280;5961;42.640;23.380;2023-05-21T09:03:09;93822.88;;;20.05;58.00
11808;BME280;5961;42.640;23.380;2023-05-21T09:05:39;93832.06;;;20.15;57.02
11808;BME280;5961;42.640;23.380;2023-05-21T09:08:12;93834.31;;;20.23;57.88
11808;BME280;5961;42.640;23.380;2023-05-21T09:10:49;93808.59;;;20.08;52.30
11808;BME280;5961;42.640;23.380;2023-05-21T09:13:16;93829.63;;;20.31;58.26
11808;BME280;5961;42.640;23.380;2023-05-21T09:15:43;93793.88;;;20.16;54.70
11808;BME280;5961;42.640;23.380;2023-05-21T09:18:11;93836.06;;;20.48;54.71
11808;BME280;5961;42.640;23.380;2023-05-21T09:20:38;93844.50;;;20.50;53.88
11808;BME280;5961;42.640;23.380;2023-05-21T09:23:06;93839.88;;;20.50;50.43
11808;BME280;5961;42.640;23.380;2023-05-21T09:25:37;93835.69;;;20.46;52.46
11808;BME280;5961;42.640;23.380;2023-05-21T09:28:10;93847.59;;;20.52;53.27
11808;BME280;5961;42.640;23.380;2023-05-21T09:30:43;93845.28;;;20.50;51.91
11808;BME280;5961;42.640;23.380;2023-05-21T09:33:11;93846.44;;;20.49;52.06
11808;BME280;5961;42.640;23.380;2023-05-21T09:35:43;93846.41;;;20.53;51.36
11808;BME280;5961;42.640;23.380;2023-05-21T09:38:11;93839.09;;;20.53;53.08
11808;BME280;5961;42.640;23.380;2023-05-21T09:40:42;93828.28;;;20.53;62.11
11808;BME280;5961;42.640;23.380;2023-05-21T09:43:12;93828.25;;;20.57;64.19
11808;BME280;5961;42.640;23.380;2023-05-21T09:45:49;93836.66;;;20.66;59.02
11808;BME280;5961;42.640;23.380;2023-05-21T09:48:31;93841.19;;;20.76;65.18
11808;BME280;5961;42.640;23.380;2023-05-21T09:51:06;93831.91;;;20.77;59.71
11808;BME280;5961;42.640;23.380;2023-05-21T09:53:33;93831.41;;;20.89;50.08
11808;BME280;5961;42.640;23.380;2023-05-21T09:56:00;93825.53;;;20.98;56.81
11808;BME280;5961;42.640;23.380;2023-05-21T09:58:28;93767.25;;;20.63;52.69
11808;BME280;5961;42.640;23.380;2023-05-21T10:00:54;93820.91;;;20.98;53.38
11808;BME280;5961;42.640;23.380;2023-05-21T10:03:23;93826.59;;;21.07;51.43
11808;BME280;5961;42.640;23.380;2023-05-21T10:05:54;93818.47;;;21.11;55.40
11808;BME280;5961;42.640;23.380;2023-05-21T10:08:25;93827.31;;;21.15;51.67
11808;BME280;5961;42.640;23.380;2023-05-21T10:10:52;93829.16;;;21.21;49.16
11808;BME280;5961;42.640;23.380;2023-05-21T10:13:20;93822.25;;;21.17;43.87
11808;BME280;5961;42.640;23.380;2023-05-21T10:15:52;93809.53;;;21.17;44.17
11808;BME280;5961;42.640;23.380;2023-05-21T10:18:22;93812.22;;;21.17;50.40
11808;BME280;5961;42.640;23.380;2023-05-21T10:20:50;93810.34;;;21.14;52.67
11808;BME280;5961;42.640;23.380;2023-05-21T10:23:17;93807.66;;;21.07;51.50
11808;BME280;5961;42.640;23.380;2023-05-21T10:25:46;93810.03;;;21.05;50.93
11808;BME280;5961;42.640;23.380;2023-05-21T10:28:15;93757.88;;;20.74;52.76
11808;BME280;5961;42.640;23.380;2023-05-21T10:30:42;93798.81;;;21.03;51.22
11808;BME280;5961;42.640;23.380;2023-05-21T10:33:10;93797.25;;;21.09;53.42
11808;BME280;5961;42.640;23.380;2023-05-21T10:35:40;93803.03;;;21.11;54.30
11808;BME280;5961;42.640;23.380;2023-05-21T10:38:08;93803.84;;;21.08;54.00
11808;BME280;5961;42.640;23.380;2023-05-21T10:40:35;93781.16;;;20.99;53.34
11808;BME280;5961;42.640;23.380;2023-05-21T10:43:12;93800.22;;;21.18;54.92
11808;BME280;5961;42.640;23.380;2023-05-21T10:45:52;93791.38;;;21.18;54.19
11808;BME280;5961;42.640;23.380;2023-05-21T10:48:45;93795.59;;;21.19;51.08
11808;BME280;5961;42.640;23.380;2023-05-21T10:51:21;93803.75;;;21.15;53.42
11808;BME280;5961;42.640;23.380;2023-05-21T10:56:56;93796.50;;;21.09;54.77
11808;BME280;5961;42.640;23.380;2023-05-21T10:59:35;93798.81;;;21.03;55.43
11808;BME280;5961;42.640;23.380;2023-05-21T11:02:05;93797.69;;;21.01;52.97
11808;BME280;5961;42.640;23.380;2023-05-21T11:04:33;93801.63;;;20.96;52.36
11808;BME280;5961;42.640;23.380;2023-05-21T11:07:05;93797.81;;;20.94;53.09
11808;BME280;5961;42.640;23.380;2023-05-21T11:09:32;93791.66;;;20.90;54.23
11808;BME280;5961;42.640;23.380;2023-05-21T11:11:59;93794.72;;;20.92;53.37
11808;BME280;5961;42.640;23.380;2023-05-21T11:14:32;93789.72;;;20.90;55.42
11808;BME280;5961;42.640;23.380;2023-05-21T11:17:00;93789.31;;;20.92;55.51
11808;BME280;5961;42.640;23.380;2023-05-21T11:19:35;93776.19;;;20.94;55.14
11808;BME280;5961;42.640;23.380;2023-05-21T11:22:08;93779.56;;;21.01;56.50
11808;BME280;5961;42.640;23.380;2023-05-21T11:24:39;93786.81;;;21.08;55.18
11808;BME280;5961;42.640;23.380;2023-05-21T11:27:06;93771.75;;;21.10;59.11
11808;BME280;5961;42.640;23.380;2023-05-21T11:29:43;93772.94;;;21.09;56.59
11808;BME280;5961;42.640;23.380;2023-05-21T11:32:12;93776.00;;;21.11;54.10
11808;BME280;5961;42.640;23.380;2023-05-21T11:34:40;93768.69;;;21.12;52.24
11808;BME280;5961;42.640;23.380;2023-05-21T11:37:28;93779.88;;;21.10;59.08
11808;BME280;5961;42.640;23.380;2023-05-21T11:39:57;93773.31;;;21.08;57.29
11808;BME280;5961;42.640;23.380;2023-05-21T11:42:41;93769.06;;;21.07;66.57
11808;BME280;5961;42.640;23.380;2023-05-21T11:45:09;93771.41;;;21.05;63.27
11808;BME280;5961;42.640;23.380;2023-05-21T11:47:36;93767.22;;;21.00;56.43
11808;BME280;5961;42.640;23.380;2023-05-21T11:50:11;93766.06;;;21.01;54.21
11808;BME280;5961;42.640;23.380;2023-05-21T11:52:39;93767.63;;;20.99;56.72
11808;BME280;5961;42.640;23.380;2023-05-21T11:55:06;93763.81;;;20.96;57.39
11808;BME280;5961;42.640;23.380;2023-05-21T11:57:33;93759.19;;;20.97;57.11
11808;BME280;5961;42.640;23.380;2023-05-21T12:00:01;93759.97;;;20.94;59.08
11808;BME280;5961;42.640;23.380;2023-05-21T12:02:35;93756.50;;;20.93;54.12
11808;BME280;5961;42.640;23.380;2023-05-21T12:05:03;93751.53;;;20.88;53.62
11808;BME280;5961;42.640;23.380;2023-05-21T12:07:30;93758.16;;;20.84;53.42
11808;BME280;5961;42.640;23.380;2023-05-21T12:09:59;93753.94;;;20.79;54.97
11808;BME280;5961;42.640;23.380;2023-05-21T12:12:26;93748.66;;;20.72;54.09
11808;BME280;5961;42.640;23.380;2023-05-21T12:14:54;93756.38;;;20.70;54.56
11808;BME280;5961;42.640;23.380;2023-05-21T12:17:21;93755.25;;;20.67;54.37
11808;BME280;5961;42.640;23.380;2023-05-21T12:19:50;93751.81;;;20.67;55.53
11808;BME280;5961;42.640;23.380;2023-05-21T12:22:17;93741.06;;;20.60;54.64
11808;BME280;5961;42.640;23.380;2023-05-21T12:24:44;93748.00;;;20.61;54.47
11808;BME280;5961;42.640;23.380;2023-05-21T12:27:14;93750.31;;;20.59;55.80
11808;BME280;5961;42.640;23.380;2023-05-21T12:29:43;93739.63;;;20.52;57.14
11808;BME280;5961;42.640;23.380;2023-05-21T12:32:12;93755.81;;;20.52;58.39
11808;BME280;5961;42.640;23.380;2023-05-21T12:34:41;93753.53;;;20.47;58.48
11808;BME280;5961;42.640;23.380;2023-05-21T12:37:10;93746.69;;;20.39;59.02
11808;BME280;5961;42.640;23.380;2023-05-21T12:39:41;93744.34;;;20.41;59.51
11808;BME280;5961;42.640;23.380;2023-05-21T12:42:08;93741.28;;;20.39;61.31
11808;BME280;5961;42.640;23.380;2023-05-21T12:44:37;93751.72;;;20.37;60.70
11808;BME280;5961;42.640;23.380;2023-05-21T12:47:04;93735.16;;;20.35;62.94
11808;BME280;5961;42.640;23.380;2023-05-21T12:49:33;93740.53;;;20.35;61.71
11808;BME280;5961;42.640;23.380;2023-05-21T12:52:08;93739.81;;;20.31;63.40
11808;BME280;5961;42.640;23.380;2023-05-21T12:54:37;93734.78;;;20.33;65.41
11808;BME280;5961;42.640;23.380;2023-05-21T12:57:08;93735.56;;;20.33;63.21
11808;BME280;5961;42.640;23.380;2023-05-21T12:59:50;93735.16;;;20.35;61.63
11808;BME280;5961;42.640;23.380;2023-05-21T13:02:22;93731.63;;;20.38;61.13
11808;BME280;5961;42.640;23.380;2023-05-21T13:04:53;93732.03;;;20.40;60.01
11808;BME280;5961;42.640;23.380;2023-05-21T13:07:20;93737.78;;;20.42;60.93
11808;BME280;5961;42.640;23.380;2023-05-21T13:09:47;93724.25;;;20.45;63.28